Time;durP1;ratioP1;P1;durP2;ratioP2;P2;SDS_P1;SDS_P2;PMS_P1;PMS_P2;Temp;Humidity;BMP_temperature;BMP_pressure;BME280_temperature;BME280_humidity;BME280_pressure;Samples;Min_cycle;Max_cycle;Signal;HPM_P1;HPM_P2
2022/08/15 00:00:45;;;;;;;;;12.50;12.25;;;;;23.47;56.49;100238.88;6309623;22;45781;-82
2022/08/15 00:03:24;;;;;;;;;14.50;14.00;;;;;23.43;56.69;100236.50;6339076;22;45572;-82
2022/08/15 00:05:50;;;;;;;;;13.75;13.25;;;;;23.41;56.45;100239.25;6311684;22;45257;-85
2022/08/15 00:08:17;;;;;;;;;14.50;12.75;;;;;23.35;56.65;100236.97;6312239;22;45248;-82
2022/08/15 00:10:45;;;;;;;;;13.75;12.75;;;;;23.34;56.43;100241.50;6339635;22;45330;-83
2022/08/15 00:13:17;;;;;;;;;14.75;14.75;;;;;23.29;56.82;100240.94;6337124;22;48284;-81
2022/08/15 00:15:45;;;;;;;;;16.50;15.00;;;;;23.18;57.05;100227.34;6336985;22;45248;-80
2022/08/15 00:18:11;;;;;;;;;13.25;13.25;;;;;23.23;57.23;100240.44;6339896;22;45446;-82
2022/08/15 00:20:37;;;;;;;;;12.00;12.00;;;;;23.14;56.98;100222.25;6312238;22;45358;-80
2022/08/15 00:23:07;;;;;;;;;19.75;16.25;;;;;23.17;57.43;100227.44;6313349;22;47768;-80
2022/08/15 00:25:37;;;;;;;;;15.00;13.25;;;;;23.10;56.92;100221.59;6312838;22;45305;-81
2022/08/15 00:28:05;;;;;;;;;16.50;15.25;;;;;23.05;57.33;100223.72;6312929;22;45200;-80
2022/08/15 00:30:33;;;;;;;;;16.75;14.00;;;;;23.05;57.08;100221.88;6337793;22;45361;-81
2022/08/15 00:32:58;;;;;;;;;16.25;14.25;;;;;22.97;57.80;100226.88;6338579;22;46266;-81
2022/08/15 00:35:37;;;;;;;;;19.00;14.00;;;;;22.92;57.72;100225.44;6310450;22;45805;-80
2022/08/15 00:38:24;;;;;;;;;16.25;15.00;;;;;22.92;57.73;100233.47;6338896;22;45428;-80
2022/08/15 00:43:41;;;;;;;;;17.25;16.00;;;;;22.84;58.10;100231.28;6338819;22;45253;-82
2022/08/15 00:46:10;;;;;;;;;17.25;13.75;;;;;22.81;58.13;100226.09;6311925;22;45456;-81
2022/08/15 00:48:46;;;;;;;;;17.25;15.00;;;;;22.74;58.41;100211.34;6342180;22;45215;-81
2022/08/15 00:51:39;;;;;;;;;15.25;15.00;;;;;22.76;58.41;100222.84;6312708;22;45279;-83
2022/08/15 00:54:12;;;;;;;;;17.25;15.75;;;;;22.71;58.41;100239.22;6340920;22;45226;-81
2022/08/15 00:56:47;;;;;;;;;23.25;19.25;;;;;22.60;58.37;100226.47;6341679;22;45463;-80
2022/08/15 00:59:18;;;;;;;;;17.25;16.50;;;;;22.61;58.35;100232.69;6342083;22;45425;-82
2022/08/15 01:01:44;;;;;;;;;17.50;16.25;;;;;22.49;59.14;100222.75;6339455;22;45438;-81
2022/08/15 01:04:13;;;;;;;;;20.50;18.50;;;;;22.52;58.84;100231.47;6338436;22;48024;-81
2022/08/15 01:06:39;;;;;;;;;17.25;17.25;;;;;22.48;59.12;100231.75;6340537;22;45169;-82
2022/08/15 01:09:07;;;;;;;;;16.75;16.75;;;;;22.36;59.02;100217.28;6313137;22;45338;-82
2022/08/15 01:11:44;;;;;;;;;21.25;19.25;;;;;22.37;59.02;100233.28;6341378;22;45403;-81
2022/08/15 01:14:10;;;;;;;;;15.25;14.25;;;;;22.28;59.22;100225.78;6312937;22;46218;-82
2022/08/15 01:16:41;;;;;;;;;20.00;15.75;;;;;22.18;59.32;100217.41;6341331;22;45419;-82
2022/08/15 01:19:31;;;;;;;;;21.25;18.75;;;;;22.18;59.40;100224.56;6312810;22;45297;-82
2022/08/15 01:22:19;;;;;;;;;17.00;17.00;;;;;22.19;59.69;100232.56;6313029;22;45405;-81
2022/08/15 01:25:00;;;;;;;;;21.25;19.00;;;;;22.12;59.74;100224.94;6313322;22;47081;-82
2022/08/15 01:27:29;;;;;;;;;18.25;17.75;;;;;22.08;59.90;100234.13;6313514;22;45363;-81
2022/08/15 01:29:56;;;;;;;;;17.00;16.25;;;;;22.09;59.80;100228.69;6313943;22;45335;-82
2022/08/15 01:32:21;;;;;;;;;19.50;17.75;;;;;22.03;60.12;100229.06;6342573;22;45164;-82
2022/08/15 01:34:47;;;;;;;;;17.25;15.50;;;;;22.00;59.98;100227.41;6342853;22;45203;-82
2022/08/15 01:37:13;;;;;;;;;22.50;20.00;;;;;22.00;60.00;100223.88;6342875;22;45222;-83
2022/08/15 01:39:49;;;;;;;;;21.00;21.00;;;;;21.96;60.23;100215.13;6342785;22;45282;-83
2022/08/15 01:42:27;;;;;;;;;17.00;17.00;;;;;21.92;60.08;100210.94;6313854;22;45567;-83
2022/08/15 01:45:06;;;;;;;;;13.50;13.50;;;;;21.99;60.51;100225.66;6339303;22;47193;-83
2022/08/15 01:47:42;;;;;;;;;21.25;20.50;;;;;21.92;60.29;100218.97;6313366;22;45145;-83
2022/08/15 01:50:16;;;;;;;;;24.00;21.75;;;;;21.93;60.25;100222.50;6313311;22;45371;-83
2022/08/15 01:52:59;;;;;;;;;21.00;18.75;;;;;21.85;60.25;100208.69;6341182;22;45147;-83
2022/08/15 01:55:36;;;;;;;;;20.50;20.25;;;;;21.84;60.57;100209.63;6313051;22;47103;-83
2022/08/15 01:58:05;;;;;;;;;24.25;20.75;;;;;21.79;60.30;100218.81;6313255;22;45810;-84
2022/08/15 02:00:31;;;;;;;;;18.00;15.50;;;;;21.74;60.63;100204.84;6313818;22;45192;-84
2022/08/15 02:02:57;;;;;;;;;21.50;19.75;;;;;21.69;60.64;100193.53;6341859;22;45253;-84
2022/08/15 02:05:23;;;;;;;;;15.50;15.50;;;;;21.80;60.56;100217.00;6339792;22;47391;-84
2022/08/15 02:07:48;;;;;;;;;22.75;21.25;;;;;21.72;60.58;100198.69;6313105;22;45295;-85
2022/08/15 02:10:14;;;;;;;;;18.75;18.50;;;;;21.75;60.92;100209.22;6313360;22;45255;-84
2022/08/15 02:12:40;;;;;;;;;16.50;16.50;;;;;21.81;60.70;100210.69;6313227;22;45492;-83
2022/08/15 02:15:19;;;;;;;;;23.75;23.75;;;;;21.80;60.61;100220.53;6313392;22;47312;-84
2022/08/15 02:17:46;;;;;;;;;21.50;20.25;;;;;21.71;60.60;100201.47;6312839;22;45445;-84
2022/08/15 02:20:17;;;;;;;;;20.25;19.50;;;;;21.75;60.71;100211.91;6340571;22;45257;-84
2022/08/15 02:22:43;;;;;;;;;22.50;21.50;;;;;21.74;60.54;100204.84;6342512;22;45441;-85
2022/08/15 02:25:09;;;;;;;;;21.50;19.50;;;;;21.66;60.92;100190.16;6314617;22;46977;-85
2022/08/15 02:27:37;;;;;;;;;20.25;20.00;;;;;21.70;60.44;100208.63;6314232;22;45244;-85
2022/08/15 02:30:10;;;;;;;;;20.25;20.25;;;;;21.58;60.64;100186.09;6339728;22;45325;-84
2022/08/15 02:32:39;;;;;;;;;18.25;18.25;;;;;21.59;60.70;100186.97;6313116;22;45453;-85
2022/08/15 02:35:06;;;;;;;;;19.75;19.25;;;;;21.63;60.87;100199.25;6312988;22;46966;-85
2022/08/15 02:37:31;;;;;;;;;22.75;19.25;;;;;21.54;60.80;100181.91;6340581;22;45241;-86
2022/08/15 02:39:57;;;;;;;;;23.75;22.25;;;;;21.52;60.63;100186.47;6313280;22;45204;-85
2022/08/15 02:42:22;;;;;;;;;22.00;20.75;;;;;21.54;60.96;100183.69;6341465;22;45511;-85
2022/08/15 02:44:49;;;;;;;;;24.75;21.75;;;;;21.46;60.61;100177.91;6339009;22;48019;-85
2022/08/15 02:47:15;;;;;;;;;17.50;16.50;;;;;21.50;60.58;100185.69;6339221;22;45258;-84
2022/08/15 02:49:45;;;;;;;;;19.00;19.00;;;;;21.51;60.56;100182.06;6341411;22;45283;-84
2022/08/15 02:52:12;;;;;;;;;18.00;16.00;;;;;21.45;60.64;100166.34;6312321;22;45429;-85
2022/08/15 02:54:38;;;;;;;;;16.25;16.00;;;;;21.51;60.80;100182.06;6341152;22;46464;-84
2022/08/15 02:57:04;;;;;;;;;22.00;19.00;;;;;21.47;60.91;100174.31;6313009;22;46017;-84
2022/08/15 02:59:30;;;;;;;;;22.50;20.00;;;;;21.54;60.42;100178.34;6339224;22;45297;-84
2022/08/15 03:01:57;;;;;;;;;21.25;20.25;;;;;21.45;60.74;100154.78;6341090;22;45508;-84
2022/08/15 03:04:23;;;;;;;;;21.00;21.00;;;;;21.53;60.70;100171.25;6341063;22;45325;-84
2022/08/15 03:06:50;;;;;;;;;21.00;19.50;;;;;21.56;60.75;100181.78;6312167;22;45228;-85
2022/08/15 03:09:15;;;;;;;;;21.75;16.25;;;;;21.51;60.86;100171.34;6342445;22;45218;-83
2022/08/15 03:11:43;;;;;;;;;19.75;19.00;;;;;21.53;60.79;100165.91;6313788;22;45395;-84
2022/08/15 03:14:13;;;;;;;;;18.75;18.75;;;;;21.55;60.72;100172.91;6342120;22;45500;-83
2022/08/15 03:16:43;;;;;;;;;22.50;19.25;;;;;21.66;60.57;100176.78;6342375;22;45351;-84
2022/08/15 03:19:14;;;;;;;;;20.75;19.25;;;;;21.61;60.25;100168.13;6342639;22;45158;-83
2022/08/15 03:21:39;;;;;;;;;20.25;18.50;;;;;21.66;60.10;100177.63;6342103;22;45251;-83
2022/08/15 03:24:05;;;;;;;;;17.75;16.25;;;;;21.64;60.08;100173.31;6313708;22;48161;-84
2022/08/15 03:26:31;;;;;;;;;19.00;17.75;;;;;21.50;60.24;100166.94;6313876;22;45351;-83
2022/08/15 03:28:58;;;;;;;;;20.00;19.00;;;;;21.57;60.06;100176.34;6342257;22;45215;-84
2022/08/15 03:31:24;;;;;;;;;18.00;15.50;;;;;21.53;60.32;100182.84;6313946;22;45355;-84
2022/08/15 03:33:49;;;;;;;;;18.50;18.25;;;;;21.54;60.28;100186.38;6341940;22;46102;-83
2022/08/15 03:36:18;;;;;;;;;24.25;22.25;;;;;21.53;60.42;100179.28;6341717;22;45368;-82
2022/08/15 03:38:45;;;;;;;;;21.25;18.50;;;;;21.52;60.65;100180.25;6314053;22;45696;-83
2022/08/15 03:41:13;;;;;;;;;18.50;17.50;;;;;21.46;60.23;100170.75;6313444;22;45487;-82
2022/08/15 03:43:40;;;;;;;;;26.00;22.00;;;;;21.50;60.52;100183.00;6313405;22;47015;-83
2022/08/15 03:46:10;;;;;;;;;20.75;19.75;;;;;21.48;60.37;100178.69;6313799;22;45835;-83
2022/08/15 03:49:03;;;;;;;;;20.00;20.00;;;;;21.46;60.30;100169.88;6313573;22;45203;-82
2022/08/15 03:51:29;;;;;;;;;22.25;19.00;;;;;21.33;59.97;100162.53;6306767;22;45345;-83
2022/08/15 03:53:58;;;;;;;;;16.75;16.50;;;;;21.36;60.08;100159.69;6313692;22;47931;-83
2022/08/15 03:56:28;;;;;;;;;20.00;20.00;;;;;21.40;60.20;100176.47;6313625;22;45280;-83
2022/08/15 03:58:55;;;;;;;;;18.25;17.50;;;;;21.34;60.05;100155.38;6340226;22;45416;-82
2022/08/15 04:01:23;;;;;;;;;23.50;19.50;;;;;21.36;60.64;100153.47;6312504;22;45338;-85
2022/08/15 04:03:50;;;;;;;;;16.75;15.25;;;;;21.36;60.26;100156.16;6339890;22;48392;-84
2022/08/15 04:06:20;;;;;;;;;18.25;18.25;;;;;21.39;60.14;100160.50;6313293;22;45363;-84
2022/08/15 04:08:47;;;;;;;;;20.00;18.50;;;;;21.40;60.34;100156.84;6342163;22;45168;-84
2022/08/15 04:11:14;;;;;;;;;16.75;15.50;;;;;21.29;59.95;100136.88;6314184;22;45269;-85
2022/08/15 04:13:40;;;;;;;;;18.25;17.25;;;;;21.35;59.94;100149.91;6341833;22;45378;-85
2022/08/15 04:16:07;;;;;;;;;20.50;18.25;;;;;21.39;59.99;100155.16;6313113;22;45235;-85
2022/08/15 04:18:33;;;;;;;;;19.00;18.50;;;;;21.38;59.95;100150.72;6342130;22;45414;-85
2022/08/15 04:21:01;;;;;;;;;16.00;15.50;;;;;21.41;59.85;100163.94;6341510;22;45291;-85
2022/08/15 04:23:28;;;;;;;;;16.00;15.00;;;;;21.40;59.86;100156.84;6341466;22;45286;-85
2022/08/15 04:25:53;;;;;;;;;17.50;16.75;;;;;21.33;59.55;100138.44;6313459;22;45209;-85
2022/08/15 04:28:20;;;;;;;;;18.00;18.00;;;;;21.34;59.75;100144.66;6341937;22;45248;-85
2022/08/15 04:30:48;;;;;;;;;16.75;15.25;;;;;21.31;59.42;100134.13;6314236;22;45385;-87
2022/08/15 04:33:22;;;;;;;;;15.25;15.00;;;;;21.35;59.63;100149.91;6313912;22;46980;-86
2022/08/15 04:35:59;;;;;;;;;18.75;15.50;;;;;21.30;59.59;100143.97;6341717;22;45322;-86
2022/08/15 04:38:25;;;;;;;;;17.50;17.00;;;;;21.33;59.58;100156.31;6313590;22;45216;-86
2022/08/15 04:40:51;;;;;;;;;17.00;17.00;;;;;21.20;59.68;100129.41;6342293;22;45208;-86
2022/08/15 04:43:22;;;;;;;;;15.25;14.75;;;;;21.21;59.76;100130.25;6313681;22;47395;-85
2022/08/15 04:45:48;;;;;;;;;17.25;15.75;;;;;21.31;59.41;100150.19;6313365;22;45480;-86
2022/08/15 04:48:15;;;;;;;;;18.75;18.25;;;;;21.29;59.57;100141.38;6313881;22;45311;-86
2022/08/15 04:50:42;;;;;;;;;17.75;16.75;;;;;21.30;59.67;100149.34;6339682;22;45343;-85
2022/08/15 04:53:08;;;;;;;;;16.75;15.75;;;;;21.26;59.28;100139.75;6341586;22;45445;-85
2022/08/15 04:55:35;;;;;;;;;15.75;14.25;;;;;21.27;59.56;100137.91;6313837;22;45216;-85
2022/08/15 04:58:01;;;;;;;;;17.75;17.00;;;;;21.23;59.37;100129.22;6313848;22;45345;-85
2022/08/15 05:00:29;;;;;;;;;17.50;17.50;;;;;21.30;59.42;100145.78;6341579;22;45319;-85
2022/08/15 05:03:10;;;;;;;;;18.50;16.50;;;;;21.28;59.42;100129.81;6341983;22;46063;-85
2022/08/15 05:05:40;;;;;;;;;18.50;14.75;;;;;21.29;59.72;100128.84;6341910;22;45361;-85
2022/08/15 05:08:06;;;;;;;;;13.50;13.50;;;;;21.31;59.14;100118.06;6341642;22;45315;-83
2022/08/15 05:10:32;;;;;;;;;13.25;13.25;;;;;21.29;59.33;100123.50;6341495;22;45208;-83
2022/08/15 05:13:07;;;;;;;;;17.50;16.75;;;;;21.38;59.32;100130.16;6339047;22;47021;-84
2022/08/15 05:15:33;;;;;;;;;9.50;9.25;;;;;21.37;59.49;100115.03;6339497;22;45137;-83
2022/08/15 05:17:58;;;;;;;;;18.00;16.75;;;;;21.34;59.25;100110.69;6341320;22;45592;-83
2022/08/15 05:20:24;;;;;;;;;19.75;18.50;;;;;21.43;59.54;100121.84;6341525;22;45298;-83
2022/08/15 05:23:00;;;;;;;;;18.25;16.00;;;;;21.44;59.47;100118.22;6341636;22;46400;-83
2022/08/15 05:25:37;;;;;;;;;;;;;;;;;;;;;
2022/08/15 05:28:03;;;;;;;;;13.00;13.00;;;;;21.46;59.33;100125.22;6340669;22;68730;-85
2022/08/15 05:30:28;;;;;;;;;17.00;14.25;;;;;21.44;58.97;100110.19;6312968;22;45532;-85
2022/08/15 05:33:18;;;;;;;;;17.25;16.25;;;;;21.48;59.39;100112.59;6312276;22;46704;-85
2022/08/15 05:35:46;;;;;;;;;14.25;14.25;;;;;21.46;59.22;100108.28;6313037;22;45194;-84
2022/08/15 05:38:33;;;;;;;;;15.75;15.75;;;;;21.56;59.11;100120.19;6341052;22;45276;-85
2022/08/15 05:41:01;;;;;;;;;16.25;16.00;;;;;21.57;58.91;100112.06;6338646;22;45478;-84
2022/08/15 05:43:44;;;;;;;;;13.00;13.00;;;;;21.58;59.10;100115.59;6341071;22;46054;-84
2022/08/15 05:46:22;;;;;;;;;14.75;14.00;;;;;21.53;59.25;100113.19;6313032;22;45263;-84
2022/08/15 05:49:00;;;;;;;;;16.50;16.50;;;;;21.48;58.60;100096.53;6313324;22;45229;-84
2022/08/15 05:51:38;;;;;;;;;16.50;14.75;;;;;21.61;58.75;100118.09;6312965;22;45480;-83
2022/08/15 05:54:25;;;;;;;;;15.75;13.00;;;;;21.58;58.75;100112.91;6341824;22;45452;-84
2022/08/15 05:57:20;;;;;;;;;14.50;14.25;;;;;21.63;58.57;100116.19;6313118;22;45285;-83
2022/08/15 05:59:52;;;;;;;;;13.25;12.75;;;;;21.61;58.49;100119.91;6341420;22;45621;-82
2022/08/15 06:02:32;;;;;;;;;17.00;16.25;;;;;21.62;59.05;100124.31;6313763;22;45634;-88
2022/08/15 06:04:57;;;;;;;;;15.25;15.00;;;;;21.65;58.60;100122.34;6340498;22;47180;-88
2022/08/15 06:07:25;;;;;;;;;15.50;14.75;;;;;21.63;58.58;100124.22;6313908;22;45283;-88
2022/08/15 06:09:56;;;;;;;;;15.50;15.50;;;;;21.68;58.93;100129.28;6314171;22;45365;-88
2022/08/15 06:12:21;;;;;;;;;17.75;17.75;;;;;21.69;58.66;100129.22;6314106;22;45545;-88
2022/08/15 06:14:50;;;;;;;;;15.00;15.00;;;;;21.71;58.71;100131.81;6314312;22;48093;-88
2022/08/15 06:17:41;;;;;;;;;17.75;16.25;;;;;21.68;58.75;100123.94;6313918;22;45310;-88
2022/08/15 06:20:11;;;;;;;;;14.50;13.75;;;;;21.75;58.21;100133.34;6313389;22;45225;-88
2022/08/15 06:23:05;;;;;;;;;13.00;13.00;;;;;21.75;58.31;100134.19;6340027;22;46127;-88
2022/08/15 06:25:41;;;;;;;;;15.50;14.50;;;;;21.77;58.57;100115.34;6312682;22;47180;-82
2022/08/15 06:28:32;;;;;;;;;15.50;14.75;;;;;21.80;58.42;100128.56;6341132;22;45463;-82
2022/08/15 06:31:08;;;;;;;;;13.00;13.00;;;;;21.78;58.34;100109.91;6341377;22;45377;-82
2022/08/15 06:34:19;;;;;;;;;13.25;13.25;;;;;21.87;58.42;100121.91;6312712;22;45407;-82
2022/08/15 06:37:23;;;;;;;;;17.25;13.75;;;;;21.88;58.03;100115.56;6290722;22;46244;-82
2022/08/15 06:40:16;;;;;;;;;18.25;14.00;;;;;21.91;58.44;100123.41;6275807;22;45320;-85
2022/08/15 06:42:44;;;;;;;;;18.25;16.25;;;;;21.90;58.71;100123.53;6312867;22;45327;-83
2022/08/15 06:45:10;;;;;;;;;14.50;13.00;;;;;21.90;58.70;100115.50;6341307;22;45096;-83
2022/08/15 06:47:37;;;;;;;;;15.00;14.75;;;;;21.85;58.66;100101.50;6312948;22;46861;-84
2022/08/15 06:50:11;;;;;;;;;16.75;15.50;;;;;21.87;58.72;100100.44;6341616;22;45105;-83
2022/08/15 06:52:38;;;;;;;;;17.25;16.25;;;;;21.92;58.94;100102.81;6340654;22;45349;-82
2022/08/15 06:55:03;;;;;;;;;15.00;13.75;;;;;21.96;58.91;100112.41;6341148;22;45227;-82
2022/08/15 06:57:48;;;;;;;;;17.75;15.75;;;;;21.95;58.65;100100.00;6312496;22;48159;-85
2022/08/15 07:00:20;;;;;;;;;19.50;16.75;;;;;21.95;58.29;100113.38;6312311;22;45410;-84
2022/08/15 07:02:56;;;;;;;;;15.25;15.00;;;;;22.07;58.67;100125.16;6341071;22;45219;-84
2022/08/15 07:05:28;;;;;;;;;16.75;15.25;;;;;22.05;58.66;100119.03;6312196;22;45452;-84
2022/08/15 07:08:01;;;;;;;;;16.00;15.50;;;;;22.07;58.29;100123.34;6341286;22;46221;-84
2022/08/15 07:10:50;;;;;;;;;16.25;15.25;;;;;22.15;58.54;100134.44;6338725;22;45682;-84
2022/08/15 07:13:20;;;;;;;;;17.75;16.00;;;;;22.18;58.69;100120.00;6312138;22;45508;-83
2022/08/15 07:16:07;;;;;;;;;17.50;15.00;;;;;22.23;58.36;100124.16;6311558;22;45270;-84
2022/08/15 07:18:42;;;;;;;;;17.25;16.00;;;;;22.18;57.98;100111.94;6340957;22;46234;-84
2022/08/15 07:21:17;;;;;;;;;17.50;14.00;;;;;22.15;58.24;100118.38;6312325;22;45781;-85
2022/08/15 07:24:07;;;;;;;;;13.00;13.00;;;;;22.21;58.19;100120.72;6312467;22;45314;-84
2022/08/15 07:26:46;;;;;;;;;17.75;16.75;;;;;22.14;58.27;100113.97;6312654;22;45809;-86
2022/08/15 07:29:24;;;;;;;;;14.75;13.50;;;;;22.28;58.03;100137.28;6338258;22;47224;-84
2022/08/15 07:31:58;;;;;;;;;15.75;15.00;;;;;22.31;58.00;100130.88;6311994;22;45568;-84
2022/08/15 07:34:24;;;;;;;;;14.25;13.50;;;;;22.27;58.01;100116.78;6340846;22;45283;-83
2022/08/15 07:37:03;;;;;;;;;6.00;6.00;;;;;22.28;57.57;100123.00;6340435;22;45495;-83
2022/08/15 07:39:39;;;;;;;;;17.25;13.00;;;;;22.27;57.53;100119.47;6338695;22;47870;-84
2022/08/15 07:42:11;;;;;;;;;15.00;15.00;;;;;22.32;57.58;100124.53;6312301;22;45221;-86
2022/08/15 07:44:37;;;;;;;;;13.75;12.75;;;;;22.28;57.99;100121.19;6340650;22;45294;-86
2022/08/15 07:47:11;;;;;;;;;13.00;12.75;;;;;22.33;57.64;100123.59;6311777;22;45463;-86
2022/08/15 07:49:37;;;;;;;;;15.50;13.25;;;;;22.39;57.71;100125.88;6340828;22;45547;-87
2022/08/15 07:52:18;;;;;;;;;14.00;13.00;;;;;22.47;57.66;100128.94;6337730;22;45292;-83
2022/08/15 07:55:15;;;;;;;;;11.00;10.00;;;;;22.47;57.28;100115.53;6341028;22;45247;-84
2022/08/15 07:57:57;;;;;;;;;11.75;10.50;;;;;22.48;56.71;100109.22;6321766;22;45294;-83
2022/08/15 08:00:28;;;;;;;;;12.50;10.25;;;;;22.58;56.47;100125.56;6341721;22;45682;-83
2022/08/15 08:03:16;;;;;;;;;9.00;8.00;;;;;22.64;55.71;100125.19;6313785;22;45234;-82
2022/08/15 08:05:54;;;;;;;;;10.25;10.25;;;;;22.70;55.76;100130.16;6323306;22;45360;-82
2022/08/15 08:08:23;;;;;;;;;11.50;11.25;;;;;22.77;55.48;100123.44;6341894;22;45168;-79
2022/08/15 08:11:19;;;;;;;;;10.75;9.50;;;;;22.88;55.21;100131.69;6341632;22;45507;-80
2022/08/15 08:14:00;;;;;;;;;10.00;10.00;;;;;22.82;55.19;100117.78;6312770;22;45735;-84
2022/08/15 08:16:47;;;;;;;;;12.00;9.75;;;;;22.94;55.08;100122.34;6313336;22;45184;-82
2022/08/15 08:19:20;;;;;;;;;8.00;8.00;;;;;23.03;54.82;100121.78;6312622;22;45657;-82
2022/08/15 08:21:57;;;;;;;;;6.50;6.50;;;;;23.09;54.60;100125.88;6313151;22;48077;-81
2022/08/15 08:24:48;;;;;;;;;10.50;9.00;;;;;23.13;54.82;100116.66;6339818;22;45136;-81
2022/08/15 08:27:51;;;;;;;;;9.25;8.00;;;;;23.26;53.87;100114.03;6340157;22;45294;-81
2022/08/15 08:30:21;;;;;;;;;9.25;9.25;;;;;23.38;53.83;100125.78;6314306;22;45375;-85
2022/08/15 08:32:59;;;;;;;;;9.75;9.00;;;;;23.34;53.99;100127.81;6341968;22;45406;-79
2022/08/15 08:35:36;;;;;;;;;11.00;11.00;;;;;23.31;53.69;100114.59;6313405;22;45330;-81
2022/08/15 08:38:04;;;;;;;;;7.25;7.25;;;;;23.44;53.90;100126.25;6311846;22;45296;-82
2022/08/15 08:43:49;;;;;;;;;9.00;9.00;;;;;23.86;53.06;100116.22;6341615;22;45270;-82
2022/08/15 08:46:23;;;;;;;;;10.25;8.00;;;;;24.02;53.29;100124.09;6341672;22;45380;-82
2022/08/15 08:49:06;;;;;;;;;10.00;10.00;;;;;24.19;52.24;100131.84;6313296;22;45232;-82
2022/08/15 08:51:44;;;;;;;;;11.00;11.00;;;;;24.33;52.74;100136.25;6341153;22;45283;-83
2022/08/15 08:54:33;;;;;;;;;9.00;9.00;;;;;24.40;52.11;100132.16;6341680;22;45347;-82
2022/08/15 08:57:04;;;;;;;;;9.50;9.00;;;;;24.48;51.39;100128.94;6341408;22;45291;-83
2022/08/15 08:59:39;;;;;;;;;8.75;8.75;;;;;24.60;50.91;100138.84;6313265;22;45389;-83
2022/08/15 09:02:12;;;;;;;;;11.75;10.75;;;;;24.74;50.80;100143.22;6313587;22;45683;-83
2022/08/15 09:04:45;;;;;;;;;7.75;7.75;;;;;24.77;50.43;100134.91;6312642;22;46841;-83
2022/08/15 09:07:16;;;;;;;;;8.75;8.75;;;;;24.82;49.97;100129.19;6341153;22;45210;-83
2022/08/15 09:09:45;;;;;;;;;8.25;8.00;;;;;25.00;49.94;100143.16;6313409;22;45376;-83
2022/08/15 09:15:17;;;;;;;;;8.00;8.00;;;;;25.12;49.59;100136.84;6341932;22;45148;-81
2022/08/15 09:17:47;;;;;;;;;8.00;8.00;;;;;25.19;49.00;100137.28;6313320;22;45303;-82
2022/08/15 09:20:17;;;;;;;;;9.00;9.00;;;;;25.32;48.97;100148.88;6341773;22;45773;-84
2022/08/15 09:22:43;;;;;;;;;10.50;9.00;;;;;25.41;49.12;100133.84;6313011;22;45327;-83
2022/08/15 09:25:09;;;;;;;;;7.75;7.75;;;;;25.51;48.89;100137.56;6337808;22;45355;-79
2022/08/15 09:28:01;;;;;;;;;9.00;9.00;;;;;25.46;47.78;100126.28;6313016;22;45529;-79
2022/08/15 09:30:27;;;;;;;;;9.75;8.00;;;;;25.46;47.86;100139.75;6338753;22;45354;-80
2022/08/15 09:33:13;;;;;;;;;9.00;9.00;;;;;25.42;47.67;100139.13;6308217;22;45565;-79
2022/08/15 09:35:49;;;;;;;;;7.00;7.00;;;;;25.43;48.20;100134.59;6308044;22;47121;-79
2022/08/15 09:38:33;;;;;;;;;9.00;8.00;;;;;25.60;48.04;100142.25;6308624;22;45448;-79
2022/08/15 09:41:10;;;;;;;;;9.25;9.25;;;;;25.77;47.79;100137.41;6308985;22;45753;-81
2022/08/15 09:43:55;;;;;;;;;8.25;7.75;;;;;25.88;47.30;100135.63;6339288;22;45425;-77
2022/08/15 09:46:53;;;;;;;;;8.75;7.75;;;;;26.00;47.20;100135.66;6310859;22;48375;-85
2022/08/15 09:49:42;;;;;;;;;6.00;6.00;;;;;26.12;47.04;100132.88;6310815;22;45400;-80
2022/08/15 09:52:26;;;;;;;;;7.50;7.50;;;;;26.22;46.37;100119.50;6311300;22;45279;-84
2022/08/15 09:54:59;;;;;;;;;10.50;8.00;;;;;26.21;45.85;100120.47;6312131;22;45620;-79
2022/08/15 09:57:36;;;;;;;;;9.67;8.00;;;;;26.17;45.67;100124.41;6310500;22;46942;-81
2022/08/15 10:00:17;;;;;;;;;7.75;7.00;;;;;26.14;45.63;100122.81;6311551;22;45753;-78
2022/08/15 10:02:45;;;;;;;;;8.00;8.00;;;;;26.02;45.52;100123.78;6343964;22;45302;-81
2022/08/15 10:05:42;;;;;;;;;9.50;8.00;;;;;25.99;45.84;100126.72;6314041;22;45596;-78
2022/08/15 10:08:13;;;;;;;;;7.50;7.50;;;;;25.96;45.79;100129.66;6314051;22;47986;-77
2022/08/15 10:11:12;;;;;;;;;8.25;6.75;;;;;25.86;45.94;100117.84;6341738;22;45380;-83
2022/08/15 10:13:48;;;;;;;;;8.25;8.00;;;;;25.92;46.43;100126.31;6336242;22;45294;-84
2022/08/15 10:16:59;;;;;;;;;8.00;8.00;;;;;25.87;46.03;100127.66;6308794;22;45828;-85
2022/08/15 10:19:30;;;;;;;;;8.00;8.00;;;;;25.75;46.65;100130.28;6311276;22;47417;-88
2022/08/15 10:22:01;;;;;;;;;9.00;8.00;;;;;25.65;46.31;100123.03;6312333;22;45271;-83
2022/08/15 10:24:38;;;;;;;;;7.00;7.00;;;;;25.58;46.72;100128.06;6338772;22;45312;-87
2022/08/15 10:27:09;;;;;;;;;8.50;8.50;;;;;25.50;46.95;100133.13;6313426;22;45440;-86
2022/08/15 10:32:44;;;;;;;;;5.75;5.50;;;;;25.01;48.32;100134.09;6274745;22;45407;-81
2022/08/15 10:35:29;;;;;;;;;5.50;5.50;;;;;24.93;48.92;100136.50;6311028;22;45434;-79
2022/08/15 10:38:02;;;;;;;;;5.25;5.00;;;;;24.83;49.00;100128.22;6311272;22;45325;-84
2022/08/15 10:40:46;;;;;;;;;6.00;4.33;;;;;24.71;49.46;100140.75;6313442;22;47635;-79
2022/08/15 10:43:40;;;;;;;;;6.33;6.00;;;;;24.62;49.44;100144.97;6312758;22;46080;-83
2022/08/15 10:46:25;;;;;;;;;6.33;6.33;;;;;24.53;50.20;100132.16;6311976;22;45308;-82
2022/08/15 10:49:03;;;;;;;;;5.75;5.50;;;;;24.57;50.70;100140.91;6337736;22;45663;-85
2022/08/15 10:51:31;;;;;;;;;11.25;9.25;;;;;24.61;51.11;100145.94;6312080;22;45966;-80
2022/08/15 10:54:00;;;;;;;;;5.25;5.25;;;;;24.66;51.30;100137.53;6340770;22;45353;-81
2022/08/15 10:56:31;;;;;;;;;5.33;5.33;;;;;24.73;51.35;100143.34;6340963;22;45285;-82
2022/08/15 10:59:18;;;;;;;;;4.33;4.33;;;;;24.75;51.19;100128.81;6312372;22;46127;-82
2022/08/15 11:01:44;;;;;;;;;5.00;4.67;;;;;24.86;51.21;100136.09;6312436;22;48313;-83
2022/08/15 11:04:25;;;;;;;;;4.00;4.00;;;;;24.79;50.93;100145.59;6312816;22;45333;-82
2022/08/15 11:06:51;;;;;;;;;4.00;4.00;;;;;24.63;51.66;100143.13;6312237;22;45197;-81
2022/08/15 11:09:19;;;;;;;;;5.67;5.67;;;;;24.55;51.44;100138.31;6313087;22;45671;-81
2022/08/15 11:11:55;;;;;;;;;6.00;6.00;;;;;24.53;51.81;100142.06;6312565;22;48140;-84
2022/08/15 11:14:28;;;;;;;;;4.00;4.00;;;;;24.42;52.19;100134.72;6312554;22;45770;-80
2022/08/15 11:16:54;;;;;;;;;4.50;4.50;;;;;24.41;52.00;100139.25;6340926;22;45290;-80
2022/08/15 11:19:33;;;;;;;;;3.67;3.67;;;;;24.40;51.99;100134.88;6340600;22;45274;-79
2022/08/15 11:22:02;;;;;;;;;5.00;5.00;;;;;24.42;52.46;100143.66;6340154;22;45596;-80
2022/08/15 11:24:34;;;;;;;;;4.33;4.33;;;;;24.50;52.38;100148.53;6340161;22;45266;-82
2022/08/15 11:27:27;;;;;;;;;4.00;3.00;;;;;24.61;51.93;100137.84;6312853;22;45442;-80
2022/08/15 11:29:57;;;;;;;;;4.00;4.00;;;;;24.77;51.99;100151.06;6334785;22;45747;-79
2022/08/15 11:32:42;;;;;;;;;4.25;4.25;;;;;24.97;52.15;100144.25;6313467;22;47991;-80
2022/08/15 11:35:30;;;;;;;;;4.33;4.33;;;;;25.23;52.16;100155.81;6338850;22;45270;-80
2022/08/15 11:38:00;;;;;;;;;4.00;4.00;;;;;25.58;51.03;100146.03;6313386;22;45312;-81
2022/08/15 11:40:33;;;;;;;;;3.00;3.00;;;;;26.00;50.69;100158.09;6341563;22;45492;-82
2022/08/15 11:43:02;;;;;;;;;5.00;5.00;;;;;26.31;50.17;100143.06;6341450;22;45263;-85
2022/08/15 11:45:36;;;;;;;;;4.00;4.00;;;;;26.60;49.66;100148.03;6313792;22;45414;-83
2022/08/15 11:48:09;;;;;;;;;2.67;2.67;;;;;26.73;49.17;100153.25;6342055;22;45323;-85
2022/08/15 11:50:39;;;;;;;;;4.33;4.33;;;;;26.90;48.77;100138.41;6340077;22;45179;-85
2022/08/15 11:53:11;;;;;;;;;4.00;4.00;;;;;27.04;47.90;100146.22;6340361;22;45406;-84
2022/08/15 11:55:37;;;;;;;;;4.00;4.00;;;;;27.14;47.52;100146.34;6313730;22;45425;-80